sensor_id;sensor_type;location;lat;lon;timestamp;temperature;humidity
48936;DHT22;34745;52.276;10.528;2022-12-07T00:01:32;4.00;99.90
48936;DHT22;34745;52.276;10.528;2022-12-07T00:04:01;4.10;99.90
48936;DHT22;34745;52.276;10.528;2022-12-07T00:06:33;4.40;99.90
48936;DHT22;34745;52.276;10.528;2022-12-07T00:09:04;4.30;99.90
48936;DHT22;34745;52.276;10.528;2022-12-07T00:11:33;4.10;99.90
48936;DHT22;34745;52.276;10.528;2022-12-07T00:14:06;3.90;99.90
48936;DHT22;34745;52.276;10.528;2022-12-07T00:16:34;3.80;99.90
48936;DHT22;34745;52.276;10.528;2022-12-07T00:19:03;3.70;99.90
48936;DHT22;34745;52.276;10.528;2022-12-07T00:21:33;3.60;99.90
48936;DHT22;34745;52.276;10.528;2022-12-07T00:24:11;3.60;99.90
48936;DHT22;34745;52.276;10.528;2022-12-07T00:26:41;3.60;99.90
48936;DHT22;34745;52.276;10.528;2022-12-07T00:29:15;3.50;99.90
48936;DHT22;34745;52.276;10.528;2022-12-07T00:31:46;3.50;99.90
48936;DHT22;34745;52.276;10.528;2022-12-07T00:34:16;3.50;99.90
48936;DHT22;34745;52.276;10.528;2022-12-07T00:36:44;3.50;99.90
48936;DHT22;34745;52.276;10.528;2022-12-07T00:39:14;3.50;99.90
48936;DHT22;34745;52.276;10.528;2022-12-07T00:41:46;3.50;99.90
48936;DHT22;34745;52.276;10.528;2022-12-07T00:44:15;3.50;99.90
48936;DHT22;34745;52.276;10.528;2022-12-07T00:46:43;3.50;99.90
48936;DHT22;34745;52.276;10.528;2022-12-07T00:49:13;3.50;99.90
48936;DHT22;34745;52.276;10.528;2022-12-07T00:51:41;3.50;99.90
48936;DHT22;34745;52.276;10.528;2022-12-07T00:54:09;3.50;99.90
48936;DHT22;34745;52.276;10.528;2022-12-07T00:56:37;3.50;99.90
48936;DHT22;34745;52.276;10.528;2022-12-07T00:59:04;3.40;99.90
48936;DHT22;34745;52.276;10.528;2022-12-07T01:01:35;3.50;99.90
48936;DHT22;34745;52.276;10.528;2022-12-07T01:04:04;3.40;99.90
48936;DHT22;34745;52.276;10.528;2022-12-07T01:06:32;3.50;99.90
48936;DHT22;34745;52.276;10.528;2022-12-07T01:08:59;3.50;99.90
48936;DHT22;34745;52.276;10.528;2022-12-07T01:11:29;3.50;99.90
48936;DHT22;34745;52.276;10.528;2022-12-07T01:13:58;3.50;99.90
48936;DHT22;34745;52.276;10.528;2022-12-07T01:16:29;3.50;99.90
48936;DHT22;34745;52.276;10.528;2022-12-07T01:19:00;3.50;99.90
48936;DHT22;34745;52.276;10.528;2022-12-07T01:21:29;3.50;99.90
48936;DHT22;34745;52.276;10.528;2022-12-07T01:24:02;3.50;99.90
48936;DHT22;34745;52.276;10.528;2022-12-07T01:26:30;3.50;99.90
48936;DHT22;34745;52.276;10.528;2022-12-07T01:28:58;3.50;99.90
48936;DHT22;34745;52.276;10.528;2022-12-07T01:31:27;3.50;99.90
48936;DHT22;34745;52.276;10.528;2022-12-07T01:33:57;3.50;99.90
48936;DHT22;34745;52.276;10.528;2022-12-07T01:36:28;3.50;99.90
48936;DHT22;34745;52.276;10.528;2022-12-07T01:38:58;3.50;99.90
48936;DHT22;34745;52.276;10.528;2022-12-07T01:41:30;3.50;99.90
48936;DHT22;34745;52.276;10.528;2022-12-07T01:44:16;3.50;99.90
48936;DHT22;34745;52.276;10.528;2022-12-07T01:46:46;3.50;99.90
48936;DHT22;34745;52.276;10.528;2022-12-07T01:49:18;3.50;99.90
48936;DHT22;34745;52.276;10.528;2022-12-07T01:51:52;3.50;99.90
48936;DHT22;34745;52.276;10.528;2022-12-07T01:54:20;3.50;99.90
48936;DHT22;34745;52.276;10.528;2022-12-07T01:56:52;3.50;99.90
48936;DHT22;34745;52.276;10.528;2022-12-07T01:59:23;3.50;99.90
48936;DHT22;34745;52.276;10.528;2022-12-07T02:01:54;3.50;99.90
48936;DHT22;34745;52.276;10.528;2022-12-07T02:04:23;3.50;99.90
48936;DHT22;34745;52.276;10.528;2022-12-07T02:06:56;3.50;99.90
48936;DHT22;34745;52.276;10.528;2022-12-07T02:09:24;3.50;99.90
48936;DHT22;34745;52.276;10.528;2022-12-07T02:11:53;3.50;99.90
48936;DHT22;34745;52.276;10.528;2022-12-07T02:14:22;3.50;99.90
48936;DHT22;34745;52.276;10.528;2022-12-07T02:17:03;3.50;99.90
48936;DHT22;34745;52.276;10.528;2022-12-07T02:19:59;3.50;99.90
48936;DHT22;34745;52.276;10.528;2022-12-07T02:25:45;3.50;99.90
48936;DHT22;34745;52.276;10.528;2022-12-07T02:28:21;3.50;99.90
48936;DHT22;34745;52.276;10.528;2022-12-07T02:31:01;3.50;99.90
48936;DHT22;34745;52.276;10.528;2022-12-07T02:33:33;3.50;99.90
48936;DHT22;34745;52.276;10.528;2022-12-07T02:36:07;3.50;99.90
48936;DHT22;34745;52.276;10.528;2022-12-07T02:38:39;3.50;99.90
48936;DHT22;34745;52.276;10.528;2022-12-07T02:41:11;3.60;99.90
48936;DHT22;34745;52.276;10.528;2022-12-07T02:43:43;3.60;99.90
48936;DHT22;34745;52.276;10.528;2022-12-07T02:46:17;3.60;99.90
48936;DHT22;34745;52.276;10.528;2022-12-07T02:48:46;3.70;99.90
48936;DHT22;34745;52.276;10.528;2022-12-07T02:51:17;3.70;99.90
48936;DHT22;34745;52.276;10.528;2022-12-07T02:53:45;3.80;99.90
48936;DHT22;34745;52.276;10.528;2022-12-07T02:56:24;3.70;99.90
48936;DHT22;34745;52.276;10.528;2022-12-07T02:59:06;3.80;99.90
48936;DHT22;34745;52.276;10.528;2022-12-07T03:01:47;3.80;99.90
48936;DHT22;34745;52.276;10.528;2022-12-07T03:04:28;3.90;99.90
48936;DHT22;34745;52.276;10.528;2022-12-07T03:07:06;3.90;99.90
48936;DHT22;34745;52.276;10.528;2022-12-07T03:09:43;3.90;99.90
48936;DHT22;34745;52.276;10.528;2022-12-07T03:12:16;4.00;99.90
48936;DHT22;34745;52.276;10.528;2022-12-07T03:14:50;4.10;99.90
48936;DHT22;34745;52.276;10.528;2022-12-07T03:17:25;4.10;99.90
48936;DHT22;34745;52.276;10.528;2022-12-07T03:19:58;4.10;99.90
48936;DHT22;34745;52.276;10.528;2022-12-07T03:22:29;4.10;99.90
48936;DHT22;34745;52.276;10.528;2022-12-07T03:25:06;4.10;99.90
48936;DHT22;34745;52.276;10.528;2022-12-07T03:27:38;4.10;99.90
48936;DHT22;34745;52.276;10.528;2022-12-07T03:30:09;4.10;99.90
48936;DHT22;34745;52.276;10.528;2022-12-07T03:32:45;4.20;99.90
48936;DHT22;34745;52.276;10.528;2022-12-07T03:35:20;4.20;99.90
48936;DHT22;34745;52.276;10.528;2022-12-07T03:37:52;4.20;99.90
48936;DHT22;34745;52.276;10.528;2022-12-07T03:40:30;4.20;99.90
48936;DHT22;34745;52.276;10.528;2022-12-07T03:43:01;4.10;99.90
48936;DHT22;34745;52.276;10.528;2022-12-07T03:45:35;4.20;99.90
48936;DHT22;34745;52.276;10.528;2022-12-07T03:48:17;4.20;99.90
48936;DHT22;34745;52.276;10.528;2022-12-07T03:50:54;4.20;99.90
48936;DHT22;34745;52.276;10.528;2022-12-07T03:53:34;4.40;99.90
48936;DHT22;34745;52.276;10.528;2022-12-07T03:56:04;4.20;99.90
48936;DHT22;34745;52.276;10.528;2022-12-07T03:58:35;4.20;99.90
48936;DHT22;34745;52.276;10.528;2022-12-07T04:01:09;4.20;99.90
48936;DHT22;34745;52.276;10.528;2022-12-07T04:03:44;4.20;99.90
48936;DHT22;34745;52.276;10.528;2022-12-07T04:06:12;4.20;99.90
48936;DHT22;34745;52.276;10.528;2022-12-07T04:08:41;4.20;99.90
48936;DHT22;34745;52.276;10.528;2022-12-07T04:11:08;4.20;99.90
48936;DHT22;34745;52.276;10.528;2022-12-07T04:13:36;4.20;99.90
48936;DHT22;34745;52.276;10.528;2022-12-07T04:16:23;4.20;99.90
48936;DHT22;34745;52.276;10.528;2022-12-07T04:18:53;4.30;99.90
48936;DHT22;34745;52.276;10.528;2022-12-07T04:21:21;4.20;99.90
48936;DHT22;34745;52.276;10.528;2022-12-07T04:23:49;4.30;99.90
48936;DHT22;34745;52.276;10.528;2022-12-07T04:26:16;4.20;99.90
48936;DHT22;34745;52.276;10.528;2022-12-07T04:28:44;4.30;99.90
48936;DHT22;34745;52.276;10.528;2022-12-07T04:31:12;4.30;99.90
48936;DHT22;34745;52.276;10.528;2022-12-07T04:33:42;4.30;99.90
48936;DHT22;34745;52.276;10.528;2022-12-07T04:36:12;4.30;99.90
48936;DHT22;34745;52.276;10.528;2022-12-07T04:38:41;4.30;99.90
48936;DHT22;34745;52.276;10.528;2022-12-07T04:41:10;4.30;99.90
48936;DHT22;34745;52.276;10.528;2022-12-07T04:43:38;4.30;99.90
48936;DHT22;34745;52.276;10.528;2022-12-07T04:46:06;4.30;99.90
48936;DHT22;34745;52.276;10.528;2022-12-07T04:48:34;4.30;99.90
48936;DHT22;34745;52.276;10.528;2022-12-07T04:51:03;4.30;99.90
48936;DHT22;34745;52.276;10.528;2022-12-07T04:53:32;4.30;99.90
48936;DHT22;34745;52.276;10.528;2022-12-07T04:56:00;4.30;99.90
48936;DHT22;34745;52.276;10.528;2022-12-07T04:58:28;4.30;99.90
48936;DHT22;34745;52.276;10.528;2022-12-07T05:00:55;4.20;99.90
48936;DHT22;34745;52.276;10.528;2022-12-07T05:03:23;4.20;99.90
48936;DHT22;34745;52.276;10.528;2022-12-07T05:05:51;4.20;99.90
48936;DHT22;34745;52.276;10.528;2022-12-07T05:08:19;4.30;99.90
48936;DHT22;34745;52.276;10.528;2022-12-07T05:10:50;4.20;99.90
48936;DHT22;34745;52.276;10.528;2022-12-07T05:13:18;4.20;99.90
48936;DHT22;34745;52.276;10.528;2022-12-07T05:15:49;4.20;99.90
48936;DHT22;34745;52.276;10.528;2022-12-07T05:18:20;4.20;99.90
48936;DHT22;34745;52.276;10.528;2022-12-07T05:20:47;4.20;99.90
48936;DHT22;34745;52.276;10.528;2022-12-07T05:23:19;4.20;99.90
48936;DHT22;34745;52.276;10.528;2022-12-07T05:25:49;4.20;99.90
48936;DHT22;34745;52.276;10.528;2022-12-07T05:28:18;4.20;99.90
48936;DHT22;34745;52.276;10.528;2022-12-07T05:30:46;4.10;99.90
48936;DHT22;34745;52.276;10.528;2022-12-07T05:33:17;4.10;99.90
48936;DHT22;34745;52.276;10.528;2022-12-07T05:35:48;4.20;99.90
48936;DHT22;34745;52.276;10.528;2022-12-07T05:38:19;4.10;99.90
48936;DHT22;34745;52.276;10.528;2022-12-07T05:40:49;4.10;99.90
48936;DHT22;34745;52.276;10.528;2022-12-07T05:43:21;4.00;99.90
48936;DHT22;34745;52.276;10.528;2022-12-07T05:45:50;4.00;99.90
48936;DHT22;34745;52.276;10.528;2022-12-07T05:48:19;4.00;99.90
48936;DHT22;34745;52.276;10.528;2022-12-07T05:50:48;4.00;99.90
48936;DHT22;34745;52.276;10.528;2022-12-07T05:53:18;4.00;99.90
48936;DHT22;34745;52.276;10.528;2022-12-07T05:55:52;4.00;99.90
48936;DHT22;34745;52.276;10.528;2022-12-07T05:58:24;4.00;99.90
48936;DHT22;34745;52.276;10.528;2022-12-07T06:01:11;4.00;99.90
48936;DHT22;34745;52.276;10.528;2022-12-07T06:03:40;4.00;99.90
48936;DHT22;34745;52.276;10.528;2022-12-07T06:06:11;4.00;99.90
48936;DHT22;34745;52.276;10.528;2022-12-07T06:08:43;4.00;99.90
48936;DHT22;34745;52.276;10.528;2022-12-07T06:11:17;4.10;99.90
48936;DHT22;34745;52.276;10.528;2022-12-07T06:14:05;4.00;99.90
48936;DHT22;34745;52.276;10.528;2022-12-07T06:16:37;4.00;99.90
48936;DHT22;34745;52.276;10.528;2022-12-07T06:19:05;4.00;99.90
48936;DHT22;34745;52.276;10.528;2022-12-07T06:21:36;4.00;99.90
48936;DHT22;34745;52.276;10.528;2022-12-07T06:24:15;3.80;99.90
48936;DHT22;34745;52.276;10.528;2022-12-07T06:26:50;3.70;99.90
48936;DHT22;34745;52.276;10.528;2022-12-07T06:29:21;3.70;99.90
48936;DHT22;34745;52.276;10.528;2022-12-07T06:31:52;3.60;99.90
48936;DHT22;34745;52.276;10.528;2022-12-07T06:34:25;3.60;99.90
48936;DHT22;34745;52.276;10.528;2022-12-07T06:36:59;3.60;99.90
48936;DHT22;34745;52.276;10.528;2022-12-07T06:39:33;3.70;99.90
48936;DHT22;34745;52.276;10.528;2022-12-07T06:42:06;3.50;99.90
48936;DHT22;34745;52.276;10.528;2022-12-07T06:44:38;3.60;99.90
48936;DHT22;34745;52.276;10.528;2022-12-07T06:47:14;3.40;99.90
48936;DHT22;34745;52.276;10.528;2022-12-07T06:50:04;3.30;99.90
48936;DHT22;34745;52.276;10.528;2022-12-07T06:52:41;3.40;99.90
48936;DHT22;34745;52.276;10.528;2022-12-07T06:55:23;3.50;99.90
48936;DHT22;34745;52.276;10.528;2022-12-07T06:57:58;3.50;99.90
48936;DHT22;34745;52.276;10.528;2022-12-07T07:00:26;3.60;99.90
48936;DHT22;34745;52.276;10.528;2022-12-07T07:02:55;3.60;99.90
48936;DHT22;34745;52.276;10.528;2022-12-07T07:05:23;3.70;99.90
48936;DHT22;34745;52.276;10.528;2022-12-07T07:07:55;3.70;99.90
48936;DHT22;34745;52.276;10.528;2022-12-07T07:10:47;3.70;99.90
48936;DHT22;34745;52.276;10.528;2022-12-07T07:13:16;3.70;99.90
48936;DHT22;34745;52.276;10.528;2022-12-07T07:15:46;3.70;99.90
48936;DHT22;34745;52.276;10.528;2022-12-07T07:18:22;3.70;99.90
48936;DHT22;34745;52.276;10.528;2022-12-07T07:20:53;3.70;99.90
48936;DHT22;34745;52.276;10.528;2022-12-07T07:23:24;3.70;99.90
48936;DHT22;34745;52.276;10.528;2022-12-07T07:25:53;3.70;99.90
48936;DHT22;34745;52.276;10.528;2022-12-07T07:28:29;3.80;99.90
48936;DHT22;34745;52.276;10.528;2022-12-07T07:30:58;3.80;99.90
48936;DHT22;34745;52.276;10.528;2022-12-07T07:33:31;3.80;99.90
48936;DHT22;34745;52.276;10.528;2022-12-07T07:36:00;3.80;99.90
48936;DHT22;34745;52.276;10.528;2022-12-07T07:38:28;3.80;99.90
48936;DHT22;34745;52.276;10.528;2022-12-07T07:40:57;3.80;99.90
48936;DHT22;34745;52.276;10.528;2022-12-07T07:43:32;3.80;99.90
48936;DHT22;34745;52.276;10.528;2022-12-07T07:46:02;3.80;99.90
48936;DHT22;34745;52.276;10.528;2022-12-07T07:48:35;3.90;99.90
48936;DHT22;34745;52.276;10.528;2022-12-07T07:51:09;3.90;99.90
48936;DHT22;34745;52.276;10.528;2022-12-07T07:53:38;3.90;99.90
48936;DHT22;34745;52.276;10.528;2022-12-07T07:56:12;3.90;99.90
48936;DHT22;34745;52.276;10.528;2022-12-07T07:58:45;3.90;99.90
48936;DHT22;34745;52.276;10.528;2022-12-07T08:01:14;3.90;99.90
48936;DHT22;34745;52.276;10.528;2022-12-07T08:03:44;3.90;99.90
48936;DHT22;34745;52.276;10.528;2022-12-07T08:06:15;3.90;99.90
48936;DHT22;34745;52.276;10.528;2022-12-07T08:08:44;3.90;99.90
48936;DHT22;34745;52.276;10.528;2022-12-07T08:11:14;4.00;99.90
48936;DHT22;34745;52.276;10.528;2022-12-07T08:13:46;3.90;99.90
48936;DHT22;34745;52.276;10.528;2022-12-07T08:16:15;4.00;99.90
48936;DHT22;34745;52.276;10.528;2022-12-07T08:18:45;4.00;99.90
48936;DHT22;34745;52.276;10.528;2022-12-07T08:21:14;3.90;99.90
48936;DHT22;34745;52.276;10.528;2022-12-07T08:23:44;4.00;99.90
48936;DHT22;34745;52.276;10.528;2022-12-07T08:26:16;4.00;99.90
48936;DHT22;34745;52.276;10.528;2022-12-07T08:28:56;4.00;99.90
48936;DHT22;34745;52.276;10.528;2022-12-07T08:31:24;4.00;99.90
48936;DHT22;34745;52.276;10.528;2022-12-07T08:33:54;4.00;99.90
48936;DHT22;34745;52.276;10.528;2022-12-07T08:36:26;4.00;99.90
48936;DHT22;34745;52.276;10.528;2022-12-07T08:38:59;4.10;99.90
48936;DHT22;34745;52.276;10.528;2022-12-07T08:41:49;4.00;99.90
48936;DHT22;34745;52.276;10.528;2022-12-07T08:44:21;4.00;99.90
48936;DHT22;34745;52.276;10.528;2022-12-07T08:46:52;4.10;99.90
48936;DHT22;34745;52.276;10.528;2022-12-07T08:49:27;4.00;99.90
48936;DHT22;34745;52.276;10.528;2022-12-07T08:51:59;4.00;99.90
48936;DHT22;34745;52.276;10.528;2022-12-07T08:54:31;4.00;99.90
48936;DHT22;34745;52.276;10.528;2022-12-07T08:57:03;4.20;99.90
48936;DHT22;34745;52.276;10.528;2022-12-07T08:59:35;4.10;99.90
48936;DHT22;34745;52.276;10.528;2022-12-07T09:02:11;4.00;99.90
48936;DHT22;34745;52.276;10.528;2022-12-07T09:04:40;4.10;99.90
48936;DHT22;34745;52.276;10.528;2022-12-07T09:07:10;4.20;99.90
48936;DHT22;34745;52.276;10.528;2022-12-07T09:09:39;4.10;99.90
48936;DHT22;34745;52.276;10.528;2022-12-07T09:12:07;4.10;99.90
48936;DHT22;34745;52.276;10.528;2022-12-07T09:14:40;4.10;99.90
48936;DHT22;34745;52.276;10.528;2022-12-07T09:17:12;4.10;99.90
48936;DHT22;34745;52.276;10.528;2022-12-07T09:19:41;4.10;99.90
48936;DHT22;34745;52.276;10.528;2022-12-07T09:22:17;4.10;99.90
48936;DHT22;34745;52.276;10.528;2022-12-07T09:24:48;4.10;99.90
48936;DHT22;34745;52.276;10.528;2022-12-07T09:27:22;4.10;99.90
48936;DHT22;34745;52.276;10.528;2022-12-07T09:29:53;4.10;99.90
48936;DHT22;34745;52.276;10.528;2022-12-07T09:32:25;4.10;99.90
48936;DHT22;34745;52.276;10.528;2022-12-07T09:34:59;4.10;99.90
48936;DHT22;34745;52.276;10.528;2022-12-07T09:37:28;4.10;99.90
48936;DHT22;34745;52.276;10.528;2022-12-07T09:40:03;4.20;99.90
48936;DHT22;34745;52.276;10.528;2022-12-07T09:42:37;4.20;99.90
48936;DHT22;34745;52.276;10.528;2022-12-07T09:45:13;4.20;99.90
48936;DHT22;34745;52.276;10.528;2022-12-07T09:47:43;4.10;99.90
48936;DHT22;34745;52.276;10.528;2022-12-07T09:50:21;4.30;99.90
48936;DHT22;34745;52.276;10.528;2022-12-07T09:52:50;4.30;99.90
48936;DHT22;34745;52.276;10.528;2022-12-07T09:55:27;4.40;99.90
48936;DHT22;34745;52.276;10.528;2022-12-07T09:58:00;4.30;99.90
48936;DHT22;34745;52.276;10.528;2022-12-07T10:00:31;4.20;99.90
48936;DHT22;34745;52.276;10.528;2022-12-07T10:03:01;4.30;99.90
48936;DHT22;34745;52.276;10.528;2022-12-07T10:05:35;4.30;99.90
48936;DHT22;34745;52.276;10.528;2022-12-07T10:08:05;4.30;99.90
48936;DHT22;34745;52.276;10.528;2022-12-07T10:10:36;4.30;99.90
48936;DHT22;34745;52.276;10.528;2022-12-07T10:13:20;4.30;99.90
48936;DHT22;34745;52.276;10.528;2022-12-07T10:15:52;4.30;99.90
48936;DHT22;34745;52.276;10.528;2022-12-07T10:18:35;4.30;99.90
48936;DHT22;34745;52.276;10.528;2022-12-07T10:21:15;4.40;99.90
48936;DHT22;34745;52.276;10.528;2022-12-07T10:24:00;4.40;99.90
48936;DHT22;34745;52.276;10.528;2022-12-07T10:26:32;4.50;99.90
48936;DHT22;34745;52.276;10.528;2022-12-07T10:29:02;4.50;99.90
48936;DHT22;34745;52.276;10.528;2022-12-07T10:31:38;4.50;99.90
48936;DHT22;34745;52.276;10.528;2022-12-07T10:34:22;4.40;99.90
48936;DHT22;34745;52.276;10.528;2022-12-07T10:37:11;4.40;99.90
48936;DHT22;34745;52.276;10.528;2022-12-07T10:39:46;4.50;99.90
48936;DHT22;34745;52.276;10.528;2022-12-07T10:42:20;4.50;99.90
48936;DHT22;34745;52.276;10.528;2022-12-07T10:44:49;4.50;99.90
48936;DHT22;34745;52.276;10.528;2022-12-07T10:47:34;4.60;99.90
48936;DHT22;34745;52.276;10.528;2022-12-07T10:50:27;4.60;99.90
48936;DHT22;34745;52.276;10.528;2022-12-07T10:53:41;4.60;99.90
48936;DHT22;34745;52.276;10.528;2022-12-07T10:59:57;4.70;99.90
48936;DHT22;34745;52.276;10.528;2022-12-07T11:06:05;4.60;99.90
48936;DHT22;34745;52.276;10.528;2022-12-07T11:08:57;4.50;99.90
48936;DHT22;34745;52.276;10.528;2022-12-07T11:11:35;4.60;99.90
48936;DHT22;34745;52.276;10.528;2022-12-07T11:14:16;4.60;99.90
48936;DHT22;34745;52.276;10.528;2022-12-07T11:16:57;4.80;99.90
48936;DHT22;34745;52.276;10.528;2022-12-07T11:19:46;4.80;99.90
48936;DHT22;34745;52.276;10.528;2022-12-07T11:22:36;4.70;99.90
48936;DHT22;34745;52.276;10.528;2022-12-07T11:25:17;4.80;99.90
48936;DHT22;34745;52.276;10.528;2022-12-07T11:28:11;4.80;99.90
48936;DHT22;34745;52.276;10.528;2022-12-07T11:30:52;4.80;99.90
48936;DHT22;34745;52.276;10.528;2022-12-07T11:33:29;4.80;99.90
48936;DHT22;34745;52.276;10.528;2022-12-07T11:36:14;4.70;99.90
48936;DHT22;34745;52.276;10.528;2022-12-07T11:38:55;4.70;99.90
48936;DHT22;34745;52.276;10.528;2022-12-07T11:41:32;4.80;99.90
48936;DHT22;34745;52.276;10.528;2022-12-07T11:44:07;4.80;99.90
48936;DHT22;34745;52.276;10.528;2022-12-07T11:46:48;5.00;99.90
48936;DHT22;34745;52.276;10.528;2022-12-07T11:49:23;5.30;99.90
48936;DHT22;34745;52.276;10.528;2022-12-07T11:51:59;5.30;99.90
48936;DHT22;34745;52.276;10.528;2022-12-07T11:54:35;5.20;99.90
48936;DHT22;34745;52.276;10.528;2022-12-07T11:57:13;5.10;99.90
48936;DHT22;34745;52.276;10.528;2022-12-07T11:59:50;5.00;99.90
48936;DHT22;34745;52.276;10.528;2022-12-07T12:02:31;5.00;99.90
48936;DHT22;34745;52.276;10.528;2022-12-07T12:05:05;5.10;99.90
48936;DHT22;34745;52.276;10.528;2022-12-07T12:07:40;5.10;99.90
48936;DHT22;34745;52.276;10.528;2022-12-07T12:10:40;5.10;99.90
48936;DHT22;34745;52.276;10.528;2022-12-07T12:13:28;5.00;99.90
48936;DHT22;34745;52.276;10.528;2022-12-07T12:16:50;4.90;99.90
48936;DHT22;34745;52.276;10.528;2022-12-07T12:19:24;4.90;99.90
48936;DHT22;34745;52.276;10.528;2022-12-07T12:21:58;4.90;99.90
48936;DHT22;34745;52.276;10.528;2022-12-07T12:24:31;4.80;99.90
48936;DHT22;34745;52.276;10.528;2022-12-07T12:27:07;4.80;99.90
48936;DHT22;34745;52.276;10.528;2022-12-07T12:29:39;4.70;99.90
48936;DHT22;34745;52.276;10.528;2022-12-07T12:32:17;4.90;99.90
48936;DHT22;34745;52.276;10.528;2022-12-07T12:35:17;4.60;99.90
48936;DHT22;34745;52.276;10.528;2022-12-07T12:37:53;4.70;99.90
48936;DHT22;34745;52.276;10.528;2022-12-07T12:40:41;4.60;99.90
48936;DHT22;34745;52.276;10.528;2022-12-07T12:43:55;4.70;99.90
48936;DHT22;34745;52.276;10.528;2022-12-07T12:46:48;4.70;99.90
48936;DHT22;34745;52.276;10.528;2022-12-07T12:52:53;4.80;99.90
48936;DHT22;34745;52.276;10.528;2022-12-07T12:55:46;4.70;99.90
48936;DHT22;34745;52.276;10.528;2022-12-07T12:58:36;4.70;99.90
48936;DHT22;34745;52.276;10.528;2022-12-07T13:04:37;5.00;99.90
48936;DHT22;34745;52.276;10.528;2022-12-07T13:07:13;5.00;99.90
48936;DHT22;34745;52.276;10.528;2022-12-07T13:10:07;5.00;99.90
48936;DHT22;34745;52.276;10.528;2022-12-07T13:12:56;4.90;99.90
48936;DHT22;34745;52.276;10.528;2022-12-07T13:15:36;4.80;99.90
48936;DHT22;34745;52.276;10.528;2022-12-07T13:18:23;4.80;99.90
48936;DHT22;34745;52.276;10.528;2022-12-07T13:20:55;4.80;99.90
48936;DHT22;34745;52.276;10.528;2022-12-07T13:23:32;4.70;99.90
48936;DHT22;34745;52.276;10.528;2022-12-07T13:26:16;4.70;99.90
48936;DHT22;34745;52.276;10.528;2022-12-07T13:28:46;4.60;99.90
48936;DHT22;34745;52.276;10.528;2022-12-07T13:31:30;4.60;99.90
48936;DHT22;34745;52.276;10.528;2022-12-07T13:34:02;4.50;99.90
48936;DHT22;34745;52.276;10.528;2022-12-07T13:36:33;4.50;99.90
48936;DHT22;34745;52.276;10.528;2022-12-07T13:39:18;4.40;99.90
48936;DHT22;34745;52.276;10.528;2022-12-07T13:41:50;4.40;99.90
48936;DHT22;34745;52.276;10.528;2022-12-07T13:44:27;4.50;99.90
48936;DHT22;34745;52.276;10.528;2022-12-07T13:47:02;4.50;99.90
48936;DHT22;34745;52.276;10.528;2022-12-07T13:49:36;4.50;99.90
48936;DHT22;34745;52.276;10.528;2022-12-07T13:52:20;4.50;99.90
48936;DHT22;34745;52.276;10.528;2022-12-07T13:54:57;4.50;99.90
48936;DHT22;34745;52.276;10.528;2022-12-07T13:57:29;4.50;99.90
48936;DHT22;34745;52.276;10.528;2022-12-07T13:59:57;4.60;99.90
48936;DHT22;34745;52.276;10.528;2022-12-07T14:02:32;4.50;99.90
48936;DHT22;34745;52.276;10.528;2022-12-07T14:05:09;4.50;99.90
48936;DHT22;34745;52.276;10.528;2022-12-07T14:08:01;4.40;99.90
48936;DHT22;34745;52.276;10.528;2022-12-07T14:10:33;4.30;99.90
48936;DHT22;34745;52.276;10.528;2022-12-07T14:13:27;4.30;99.90
48936;DHT22;34745;52.276;10.528;2022-12-07T14:16:04;4.30;99.90
48936;DHT22;34745;52.276;10.528;2022-12-07T14:18:38;4.40;99.90
48936;DHT22;34745;52.276;10.528;2022-12-07T14:21:16;4.40;99.90
48936;DHT22;34745;52.276;10.528;2022-12-07T14:24:09;4.40;99.90
48936;DHT22;34745;52.276;10.528;2022-12-07T14:26:40;4.30;99.90
48936;DHT22;34745;52.276;10.528;2022-12-07T14:29:31;4.40;99.90
48936;DHT22;34745;52.276;10.528;2022-12-07T14:32:21;4.40;99.90
48936;DHT22;34745;52.276;10.528;2022-12-07T14:35:02;4.40;99.90
48936;DHT22;34745;52.276;10.528;2022-12-07T14:37:33;4.40;99.90
48936;DHT22;34745;52.276;10.528;2022-12-07T14:40:06;4.40;99.90
48936;DHT22;34745;52.276;10.528;2022-12-07T14:42:37;4.40;99.90
48936;DHT22;34745;52.276;10.528;2022-12-07T14:45:11;4.40;99.90
48936;DHT22;34745;52.276;10.528;2022-12-07T14:47:48;4.40;99.90
48936;DHT22;34745;52.276;10.528;2022-12-07T14:50:44;4.40;99.90
48936;DHT22;34745;52.276;10.528;2022-12-07T14:53:37;4.40;99.90
48936;DHT22;34745;52.276;10.528;2022-12-07T14:56:20;4.40;99.90
48936;DHT22;34745;52.276;10.528;2022-12-07T14:58:53;4.40;99.90
48936;DHT22;34745;52.276;10.528;2022-12-07T15:01:34;4.40;99.90
48936;DHT22;34745;52.276;10.528;2022-12-07T15:04:02;4.50;99.90
48936;DHT22;34745;52.276;10.528;2022-12-07T15:06:32;4.50;99.90
48936;DHT22;34745;52.276;10.528;2022-12-07T15:09:03;4.40;99.90
48936;DHT22;34745;52.276;10.528;2022-12-07T15:11:34;4.60;99.90
48936;DHT22;34745;52.276;10.528;2022-12-07T15:14:10;4.50;99.90
48936;DHT22;34745;52.276;10.528;2022-12-07T15:16:54;4.50;99.90
48936;DHT22;34745;52.276;10.528;2022-12-07T15:19:37;4.50;99.90
48936;DHT22;34745;52.276;10.528;2022-12-07T15:22:16;4.50;99.90
48936;DHT22;34745;52.276;10.528;2022-12-07T15:24:56;4.50;99.90
48936;DHT22;34745;52.276;10.528;2022-12-07T15:27:26;4.50;99.90
48936;DHT22;34745;52.276;10.528;2022-12-07T15:30:04;4.50;99.90
48936;DHT22;34745;52.276;10.528;2022-12-07T15:32:50;4.50;99.90
48936;DHT22;34745;52.276;10.528;2022-12-07T15:35:24;4.50;99.90
48936;DHT22;34745;52.276;10.528;2022-12-07T15:37:58;4.40;99.90
48936;DHT22;34745;52.276;10.528;2022-12-07T15:40:34;4.40;99.90
48936;DHT22;34745;52.276;10.528;2022-12-07T15:43:08;4.40;99.90
48936;DHT22;34745;52.276;10.528;2022-12-07T15:46:03;4.50;99.90
48936;DHT22;34745;52.276;10.528;2022-12-07T15:48:37;4.40;99.90
48936;DHT22;34745;52.276;10.528;2022-12-07T15:51:12;4.50;99.90
48936;DHT22;34745;52.276;10.528;2022-12-07T15:53:41;4.50;99.90
48936;DHT22;34745;52.276;10.528;2022-12-07T15:56:14;4.50;99.90
48936;DHT22;34745;52.276;10.528;2022-12-07T15:58:52;4.50;99.90
48936;DHT22;34745;52.276;10.528;2022-12-07T16:01:19;4.50;99.90
48936;DHT22;34745;52.276;10.528;2022-12-07T16:03:47;4.50;99.90
48936;DHT22;34745;52.276;10.528;2022-12-07T16:06:15;4.40;99.90
48936;DHT22;34745;52.276;10.528;2022-12-07T16:08:44;4.30;99.90
48936;DHT22;34745;52.276;10.528;2022-12-07T16:11:11;3.90;99.90
48936;DHT22;34745;52.276;10.528;2022-12-07T16:13:39;3.70;99.90
48936;DHT22;34745;52.276;10.528;2022-12-07T16:16:10;3.60;99.90
48936;DHT22;34745;52.276;10.528;2022-12-07T16:18:38;3.30;99.90
48936;DHT22;34745;52.276;10.528;2022-12-07T16:21:06;3.00;99.90
48936;DHT22;34745;52.276;10.528;2022-12-07T16:23:33;2.90;99.90
48936;DHT22;34745;52.276;10.528;2022-12-07T16:26:07;2.80;99.90
48936;DHT22;34745;52.276;10.528;2022-12-07T16:28:35;2.80;99.90
48936;DHT22;34745;52.276;10.528;2022-12-07T16:31:03;2.80;99.90
48936;DHT22;34745;52.276;10.528;2022-12-07T16:33:33;2.70;99.90